sensor_id;sensor_type;location;lat;lon;timestamp;P1;durP1;ratioP1;P2;durP2;ratioP2
3597;SDS011;1813;52.016;8.714;2024-01-30T00:01:18;28.77;;;20.07;;
3597;SDS011;1813;52.016;8.714;2024-01-30T00:03:54;34.40;;;22.23;;
3597;SDS011;1813;52.016;8.714;2024-01-30T00:06:28;34.47;;;22.90;;
3597;SDS011;1813;52.016;8.714;2024-01-30T00:09:01;33.53;;;21.20;;
3597;SDS011;1813;52.016;8.714;2024-01-30T00:11:35;52.40;;;38.40;;
3597;SDS011;1813;52.016;8.714;2024-01-30T00:14:08;43.90;;;30.03;;
3597;SDS011;1813;52.016;8.714;2024-01-30T00:16:42;36.87;;;24.60;;
3597;SDS011;1813;52.016;8.714;2024-01-30T00:19:18;30.40;;;20.60;;
3597;SDS011;1813;52.016;8.714;2024-01-30T00:21:51;27.70;;;18.90;;
3597;SDS011;1813;52.016;8.714;2024-01-30T00:24:25;31.47;;;20.10;;
3597;SDS011;1813;52.016;8.714;2024-01-30T00:26:58;32.83;;;19.20;;
3597;SDS011;1813;52.016;8.714;2024-01-30T00:29:31;31.23;;;20.43;;
3597;SDS011;1813;52.016;8.714;2024-01-30T00:32:05;32.33;;;20.70;;
3597;SDS011;1813;52.016;8.714;2024-01-30T00:34:41;29.43;;;19.97;;
3597;SDS011;1813;52.016;8.714;2024-01-30T00:37:15;30.23;;;20.40;;
3597;SDS011;1813;52.016;8.714;2024-01-30T00:39:48;34.77;;;22.57;;
3597;SDS011;1813;52.016;8.714;2024-01-30T00:42:22;38.70;;;24.27;;
3597;SDS011;1813;52.016;8.714;2024-01-30T00:44:55;39.47;;;24.03;;
3597;SDS011;1813;52.016;8.714;2024-01-30T00:47:29;41.60;;;25.90;;
3597;SDS011;1813;52.016;8.714;2024-01-30T00:50:06;38.17;;;24.87;;
3597;SDS011;1813;52.016;8.714;2024-01-30T00:52:39;45.00;;;26.20;;
3597;SDS011;1813;52.016;8.714;2024-01-30T00:55:15;38.47;;;24.90;;
3597;SDS011;1813;52.016;8.714;2024-01-30T00:57:48;37.13;;;23.80;;
3597;SDS011;1813;52.016;8.714;2024-01-30T01:00:22;37.60;;;23.97;;
3597;SDS011;1813;52.016;8.714;2024-01-30T01:02:59;39.83;;;25.47;;
3597;SDS011;1813;52.016;8.714;2024-01-30T01:05:35;40.40;;;26.00;;
3597;SDS011;1813;52.016;8.714;2024-01-30T01:08:09;39.33;;;24.23;;
3597;SDS011;1813;52.016;8.714;2024-01-30T01:10:42;38.50;;;24.27;;
3597;SDS011;1813;52.016;8.714;2024-01-30T01:13:15;40.80;;;26.90;;
3597;SDS011;1813;52.016;8.714;2024-01-30T01:15:49;42.70;;;26.47;;
3597;SDS011;1813;52.016;8.714;2024-01-30T01:18:22;41.27;;;26.70;;
3597;SDS011;1813;52.016;8.714;2024-01-30T01:20:58;42.17;;;26.40;;
3597;SDS011;1813;52.016;8.714;2024-01-30T01:23:32;39.20;;;26.43;;
3597;SDS011;1813;52.016;8.714;2024-01-30T01:26:05;41.17;;;26.40;;
3597;SDS011;1813;52.016;8.714;2024-01-30T01:28:40;43.37;;;28.30;;
3597;SDS011;1813;52.016;8.714;2024-01-30T01:31:14;41.33;;;27.63;;
3597;SDS011;1813;52.016;8.714;2024-01-30T01:33:47;36.70;;;24.20;;
3597;SDS011;1813;52.016;8.714;2024-01-30T01:36:23;38.83;;;26.30;;
3597;SDS011;1813;52.016;8.714;2024-01-30T01:38:57;38.73;;;23.90;;
3597;SDS011;1813;52.016;8.714;2024-01-30T01:41:30;44.23;;;27.80;;
3597;SDS011;1813;52.016;8.714;2024-01-30T01:44:04;46.30;;;28.73;;
3597;SDS011;1813;52.016;8.714;2024-01-30T01:46:37;42.90;;;27.23;;
3597;SDS011;1813;52.016;8.714;2024-01-30T01:49:11;43.77;;;27.50;;
3597;SDS011;1813;52.016;8.714;2024-01-30T01:51:47;40.80;;;25.83;;
3597;SDS011;1813;52.016;8.714;2024-01-30T01:54:22;40.90;;;26.30;;
3597;SDS011;1813;52.016;8.714;2024-01-30T01:56:56;44.47;;;28.10;;
3597;SDS011;1813;52.016;8.714;2024-01-30T01:59:29;40.80;;;25.73;;
3597;SDS011;1813;52.016;8.714;2024-01-30T02:02:03;42.30;;;27.30;;
3597;SDS011;1813;52.016;8.714;2024-01-30T02:04:39;39.27;;;25.87;;
3597;SDS011;1813;52.016;8.714;2024-01-30T02:07:15;39.37;;;26.90;;
3597;SDS011;1813;52.016;8.714;2024-01-30T02:09:48;43.80;;;27.63;;
3597;SDS011;1813;52.016;8.714;2024-01-30T02:12:21;41.43;;;27.03;;
3597;SDS011;1813;52.016;8.714;2024-01-30T02:14:55;44.33;;;27.00;;
3597;SDS011;1813;52.016;8.714;2024-01-30T02:17:28;41.80;;;27.70;;
3597;SDS011;1813;52.016;8.714;2024-01-30T02:20:01;40.73;;;27.60;;
3597;SDS011;1813;52.016;8.714;2024-01-30T02:22:38;43.23;;;27.13;;
3597;SDS011;1813;52.016;8.714;2024-01-30T02:25:13;41.70;;;25.90;;
3597;SDS011;1813;52.016;8.714;2024-01-30T02:27:47;42.03;;;26.47;;
3597;SDS011;1813;52.016;8.714;2024-01-30T02:30:20;46.30;;;27.20;;
3597;SDS011;1813;52.016;8.714;2024-01-30T02:32:53;41.40;;;25.07;;
3597;SDS011;1813;52.016;8.714;2024-01-30T02:35:26;45.53;;;25.90;;
3597;SDS011;1813;52.016;8.714;2024-01-30T02:38:02;42.97;;;26.70;;
3597;SDS011;1813;52.016;8.714;2024-01-30T02:40:36;41.13;;;25.70;;
3597;SDS011;1813;52.016;8.714;2024-01-30T02:43:10;41.93;;;25.90;;
3597;SDS011;1813;52.016;8.714;2024-01-30T02:45:43;40.03;;;25.33;;
3597;SDS011;1813;52.016;8.714;2024-01-30T02:48:16;39.00;;;24.60;;
3597;SDS011;1813;52.016;8.714;2024-01-30T02:50:50;41.03;;;26.97;;
3597;SDS011;1813;52.016;8.714;2024-01-30T02:53:25;42.90;;;27.10;;
3597;SDS011;1813;52.016;8.714;2024-01-30T02:55:59;43.90;;;27.43;;
3597;SDS011;1813;52.016;8.714;2024-01-30T02:58:32;39.77;;;26.23;;
3597;SDS011;1813;52.016;8.714;2024-01-30T03:01:06;39.37;;;26.57;;
3597;SDS011;1813;52.016;8.714;2024-01-30T03:03:39;44.10;;;26.90;;
3597;SDS011;1813;52.016;8.714;2024-01-30T03:06:10;40.80;;;27.33;;
3597;SDS011;1813;52.016;8.714;2024-01-30T03:08:48;39.00;;;26.17;;
3597;SDS011;1813;52.016;8.714;2024-01-30T03:11:22;42.97;;;27.33;;
3597;SDS011;1813;52.016;8.714;2024-01-30T03:13:55;40.87;;;26.90;;
3597;SDS011;1813;52.016;8.714;2024-01-30T03:16:28;43.13;;;27.33;;
3597;SDS011;1813;52.016;8.714;2024-01-30T03:19:01;43.40;;;25.90;;
3597;SDS011;1813;52.016;8.714;2024-01-30T03:21:35;43.10;;;28.83;;
3597;SDS011;1813;52.016;8.714;2024-01-30T03:24:11;40.57;;;27.63;;
3597;SDS011;1813;52.016;8.714;2024-01-30T03:26:44;40.97;;;27.60;;
3597;SDS011;1813;52.016;8.714;2024-01-30T03:29:18;47.00;;;29.17;;
3597;SDS011;1813;52.016;8.714;2024-01-30T03:31:51;44.60;;;28.47;;
3597;SDS011;1813;52.016;8.714;2024-01-30T03:34:24;46.00;;;29.00;;
3597;SDS011;1813;52.016;8.714;2024-01-30T03:36:58;48.63;;;30.17;;
3597;SDS011;1813;52.016;8.714;2024-01-30T03:39:33;50.17;;;30.40;;
3597;SDS011;1813;52.016;8.714;2024-01-30T03:42:07;49.37;;;30.90;;
3597;SDS011;1813;52.016;8.714;2024-01-30T03:44:40;67.97;;;37.17;;
3597;SDS011;1813;52.016;8.714;2024-01-30T03:47:13;50.47;;;31.10;;
3597;SDS011;1813;52.016;8.714;2024-01-30T03:49:47;52.97;;;30.47;;
3597;SDS011;1813;52.016;8.714;2024-01-30T03:52:20;45.73;;;29.77;;
3597;SDS011;1813;52.016;8.714;2024-01-30T03:54:56;49.30;;;30.90;;
3597;SDS011;1813;52.016;8.714;2024-01-30T03:57:30;50.17;;;30.30;;
3597;SDS011;1813;52.016;8.714;2024-01-30T04:00:04;45.70;;;29.60;;
3597;SDS011;1813;52.016;8.714;2024-01-30T04:02:42;47.67;;;30.07;;
3597;SDS011;1813;52.016;8.714;2024-01-30T04:05:15;53.90;;;30.43;;
3597;SDS011;1813;52.016;8.714;2024-01-30T04:07:49;46.80;;;29.27;;
3597;SDS011;1813;52.016;8.714;2024-01-30T04:10:25;49.20;;;31.33;;
3597;SDS011;1813;52.016;8.714;2024-01-30T04:12:58;46.20;;;29.63;;
3597;SDS011;1813;52.016;8.714;2024-01-30T04:15:32;51.10;;;32.80;;
3597;SDS011;1813;52.016;8.714;2024-01-30T04:18:05;49.43;;;30.60;;
3597;SDS011;1813;52.016;8.714;2024-01-30T04:20:39;49.07;;;30.83;;
3597;SDS011;1813;52.016;8.714;2024-01-30T04:23:12;47.90;;;30.93;;
3597;SDS011;1813;52.016;8.714;2024-01-30T04:25:48;53.63;;;31.50;;
3597;SDS011;1813;52.016;8.714;2024-01-30T04:28:22;57.60;;;34.63;;
3597;SDS011;1813;52.016;8.714;2024-01-30T04:30:55;58.83;;;35.70;;
3597;SDS011;1813;52.016;8.714;2024-01-30T04:33:28;61.00;;;36.30;;
3597;SDS011;1813;52.016;8.714;2024-01-30T04:36:02;58.63;;;35.37;;
3597;SDS011;1813;52.016;8.714;2024-01-30T04:38:36;64.50;;;38.17;;
3597;SDS011;1813;52.016;8.714;2024-01-30T04:41:11;70.23;;;42.73;;
3597;SDS011;1813;52.016;8.714;2024-01-30T04:43:45;87.87;;;45.30;;
3597;SDS011;1813;52.016;8.714;2024-01-30T04:46:18;79.73;;;48.33;;
3597;SDS011;1813;52.016;8.714;2024-01-30T04:48:51;84.30;;;46.10;;
3597;SDS011;1813;52.016;8.714;2024-01-30T04:51:25;79.77;;;46.50;;
3597;SDS011;1813;52.016;8.714;2024-01-30T04:53:58;84.60;;;49.37;;
3597;SDS011;1813;52.016;8.714;2024-01-30T04:56:34;80.73;;;48.37;;
3597;SDS011;1813;52.016;8.714;2024-01-30T04:59:07;77.60;;;47.37;;
3597;SDS011;1813;52.016;8.714;2024-01-30T05:01:41;84.67;;;48.70;;
3597;SDS011;1813;52.016;8.714;2024-01-30T05:04:14;78.13;;;46.63;;
3597;SDS011;1813;52.016;8.714;2024-01-30T05:06:48;73.27;;;43.20;;
3597;SDS011;1813;52.016;8.714;2024-01-30T05:09:21;67.90;;;41.13;;
3597;SDS011;1813;52.016;8.714;2024-01-30T05:11:57;68.13;;;39.97;;
3597;SDS011;1813;52.016;8.714;2024-01-30T05:14:30;69.83;;;40.70;;
3597;SDS011;1813;52.016;8.714;2024-01-30T05:17:04;67.57;;;40.30;;
3597;SDS011;1813;52.016;8.714;2024-01-30T05:19:38;65.80;;;39.60;;
3597;SDS011;1813;52.016;8.714;2024-01-30T05:22:11;66.43;;;41.03;;
3597;SDS011;1813;52.016;8.714;2024-01-30T05:24:45;64.70;;;38.60;;
3597;SDS011;1813;52.016;8.714;2024-01-30T05:27:21;65.50;;;39.53;;
3597;SDS011;1813;52.016;8.714;2024-01-30T05:29:55;61.80;;;38.27;;
3597;SDS011;1813;52.016;8.714;2024-01-30T05:32:28;61.63;;;38.40;;
3597;SDS011;1813;52.016;8.714;2024-01-30T05:35:02;62.73;;;38.47;;
3597;SDS011;1813;52.016;8.714;2024-01-30T05:37:38;62.60;;;37.97;;
3597;SDS011;1813;52.016;8.714;2024-01-30T05:40:12;65.53;;;38.00;;
3597;SDS011;1813;52.016;8.714;2024-01-30T05:42:48;73.57;;;39.30;;
3597;SDS011;1813;52.016;8.714;2024-01-30T05:45:21;70.07;;;40.73;;
3597;SDS011;1813;52.016;8.714;2024-01-30T05:47:55;68.07;;;41.60;;
3597;SDS011;1813;52.016;8.714;2024-01-30T05:50:28;68.90;;;42.20;;
3597;SDS011;1813;52.016;8.714;2024-01-30T05:53:02;61.40;;;39.20;;
3597;SDS011;1813;52.016;8.714;2024-01-30T05:55:35;65.33;;;38.20;;
3597;SDS011;1813;52.016;8.714;2024-01-30T05:58:11;68.07;;;37.70;;
3597;SDS011;1813;52.016;8.714;2024-01-30T06:00:44;64.67;;;38.37;;
3597;SDS011;1813;52.016;8.714;2024-01-30T06:03:18;66.73;;;37.33;;
3597;SDS011;1813;52.016;8.714;2024-01-30T06:05:51;65.53;;;37.27;;
3597;SDS011;1813;52.016;8.714;2024-01-30T06:08:24;65.50;;;36.87;;
3597;SDS011;1813;52.016;8.714;2024-01-30T06:10:58;62.27;;;37.40;;
3597;SDS011;1813;52.016;8.714;2024-01-30T06:13:35;67.63;;;37.13;;
3597;SDS011;1813;52.016;8.714;2024-01-30T06:16:09;59.17;;;36.37;;
3597;SDS011;1813;52.016;8.714;2024-01-30T06:18:43;65.73;;;37.90;;
3597;SDS011;1813;52.016;8.714;2024-01-30T06:21:16;66.07;;;37.93;;
3597;SDS011;1813;52.016;8.714;2024-01-30T06:23:51;62.10;;;37.07;;
3597;SDS011;1813;52.016;8.714;2024-01-30T06:26:24;62.37;;;37.50;;
3597;SDS011;1813;52.016;8.714;2024-01-30T06:29:00;64.37;;;37.20;;
3597;SDS011;1813;52.016;8.714;2024-01-30T06:31:39;59.43;;;35.67;;
3597;SDS011;1813;52.016;8.714;2024-01-30T06:34:12;62.73;;;35.03;;
3597;SDS011;1813;52.016;8.714;2024-01-30T06:36:46;66.17;;;36.23;;
3597;SDS011;1813;52.016;8.714;2024-01-30T06:39:19;58.73;;;36.30;;
3597;SDS011;1813;52.016;8.714;2024-01-30T06:41:53;63.83;;;37.63;;
3597;SDS011;1813;52.016;8.714;2024-01-30T06:44:29;60.50;;;34.80;;
3597;SDS011;1813;52.016;8.714;2024-01-30T06:47:02;57.53;;;35.97;;
3597;SDS011;1813;52.016;8.714;2024-01-30T06:49:36;66.47;;;35.70;;
3597;SDS011;1813;52.016;8.714;2024-01-30T06:52:12;63.67;;;37.00;;
3597;SDS011;1813;52.016;8.714;2024-01-30T06:54:45;59.77;;;35.87;;
3597;SDS011;1813;52.016;8.714;2024-01-30T06:57:19;61.07;;;35.77;;
3597;SDS011;1813;52.016;8.714;2024-01-30T06:59:55;58.77;;;35.10;;
3597;SDS011;1813;52.016;8.714;2024-01-30T07:02:28;59.00;;;34.30;;
3597;SDS011;1813;52.016;8.714;2024-01-30T07:05:01;54.60;;;32.00;;
3597;SDS011;1813;52.016;8.714;2024-01-30T07:07:35;53.20;;;34.20;;
3597;SDS011;1813;52.016;8.714;2024-01-30T07:10:08;52.40;;;33.50;;
3597;SDS011;1813;52.016;8.714;2024-01-30T07:12:42;53.73;;;33.70;;
3597;SDS011;1813;52.016;8.714;2024-01-30T07:15:17;51.97;;;33.03;;
3597;SDS011;1813;52.016;8.714;2024-01-30T07:17:51;58.37;;;33.60;;
3597;SDS011;1813;52.016;8.714;2024-01-30T07:20:24;62.03;;;35.80;;
3597;SDS011;1813;52.016;8.714;2024-01-30T07:22:57;55.27;;;32.80;;
3597;SDS011;1813;52.016;8.714;2024-01-30T07:25:31;56.50;;;34.80;;
3597;SDS011;1813;52.016;8.714;2024-01-30T07:28:06;59.00;;;34.27;;
3597;SDS011;1813;52.016;8.714;2024-01-30T07:30:43;54.33;;;32.50;;
3597;SDS011;1813;52.016;8.714;2024-01-30T07:33:17;57.67;;;33.60;;
3597;SDS011;1813;52.016;8.714;2024-01-30T07:35:52;58.17;;;34.00;;
3597;SDS011;1813;52.016;8.714;2024-01-30T07:38:26;54.03;;;32.30;;
3597;SDS011;1813;52.016;8.714;2024-01-30T07:40:59;59.10;;;35.80;;
3597;SDS011;1813;52.016;8.714;2024-01-30T07:43:33;55.97;;;33.90;;
3597;SDS011;1813;52.016;8.714;2024-01-30T07:46:12;55.00;;;32.17;;
3597;SDS011;1813;52.016;8.714;2024-01-30T07:48:45;53.50;;;32.73;;
3597;SDS011;1813;52.016;8.714;2024-01-30T07:51:19;55.13;;;33.07;;
3597;SDS011;1813;52.016;8.714;2024-01-30T07:53:52;79.20;;;34.00;;
3597;SDS011;1813;52.016;8.714;2024-01-30T07:56:26;54.30;;;32.93;;
3597;SDS011;1813;52.016;8.714;2024-01-30T07:58:59;47.50;;;28.90;;
3597;SDS011;1813;52.016;8.714;2024-01-30T08:01:35;48.27;;;29.40;;
3597;SDS011;1813;52.016;8.714;2024-01-30T08:04:08;50.07;;;30.40;;
3597;SDS011;1813;52.016;8.714;2024-01-30T08:06:42;43.63;;;27.97;;
3597;SDS011;1813;52.016;8.714;2024-01-30T08:09:15;44.27;;;28.37;;
3597;SDS011;1813;52.016;8.714;2024-01-30T08:11:48;45.03;;;28.47;;
3597;SDS011;1813;52.016;8.714;2024-01-30T08:14:22;45.47;;;29.70;;
3597;SDS011;1813;52.016;8.714;2024-01-30T08:16:59;55.00;;;32.60;;
3597;SDS011;1813;52.016;8.714;2024-01-30T08:19:32;51.77;;;31.73;;
3597;SDS011;1813;52.016;8.714;2024-01-30T08:22:06;58.67;;;33.10;;
3597;SDS011;1813;52.016;8.714;2024-01-30T08:24:40;61.47;;;35.00;;
3597;SDS011;1813;52.016;8.714;2024-01-30T08:27:14;60.73;;;33.43;;
3597;SDS011;1813;52.016;8.714;2024-01-30T08:29:47;54.17;;;31.80;;
3597;SDS011;1813;52.016;8.714;2024-01-30T08:32:23;45.47;;;30.00;;
3597;SDS011;1813;52.016;8.714;2024-01-30T08:34:57;46.13;;;29.50;;
3597;SDS011;1813;52.016;8.714;2024-01-30T08:37:33;51.43;;;29.53;;
3597;SDS011;1813;52.016;8.714;2024-01-30T08:40:07;51.57;;;29.70;;
3597;SDS011;1813;52.016;8.714;2024-01-30T08:42:41;54.70;;;31.30;;
3597;SDS011;1813;52.016;8.714;2024-01-30T08:45:14;52.40;;;32.50;;
3597;SDS011;1813;52.016;8.714;2024-01-30T08:47:50;60.83;;;34.80;;
3597;SDS011;1813;52.016;8.714;2024-01-30T08:50:23;64.47;;;36.40;;
3597;SDS011;1813;52.016;8.714;2024-01-30T08:52:57;69.70;;;40.00;;
3597;SDS011;1813;52.016;8.714;2024-01-30T08:55:30;58.43;;;34.27;;
3597;SDS011;1813;52.016;8.714;2024-01-30T08:58:04;48.40;;;31.40;;
3597;SDS011;1813;52.016;8.714;2024-01-30T09:00:37;42.33;;;29.20;;
3597;SDS011;1813;52.016;8.714;2024-01-30T09:03:13;47.93;;;28.90;;
3597;SDS011;1813;52.016;8.714;2024-01-30T09:05:46;41.33;;;27.27;;
3597;SDS011;1813;52.016;8.714;2024-01-30T09:08:20;44.97;;;27.87;;
3597;SDS011;1813;52.016;8.714;2024-01-30T09:10:53;41.17;;;26.80;;
3597;SDS011;1813;52.016;8.714;2024-01-30T09:13:26;42.07;;;27.90;;
3597;SDS011;1813;52.016;8.714;2024-01-30T09:15:59;44.83;;;27.50;;
3597;SDS011;1813;52.016;8.714;2024-01-30T09:18:35;47.83;;;28.03;;
3597;SDS011;1813;52.016;8.714;2024-01-30T09:21:09;41.27;;;27.23;;
3597;SDS011;1813;52.016;8.714;2024-01-30T09:23:43;42.77;;;27.20;;
3597;SDS011;1813;52.016;8.714;2024-01-30T09:26:16;40.10;;;26.63;;
3597;SDS011;1813;52.016;8.714;2024-01-30T09:28:49;43.87;;;27.10;;
3597;SDS011;1813;52.016;8.714;2024-01-30T09:31:23;40.93;;;24.37;;
3597;SDS011;1813;52.016;8.714;2024-01-30T09:33:58;37.83;;;25.87;;
3597;SDS011;1813;52.016;8.714;2024-01-30T09:36:32;35.57;;;24.53;;
3597;SDS011;1813;52.016;8.714;2024-01-30T09:39:05;41.53;;;25.80;;
3597;SDS011;1813;52.016;8.714;2024-01-30T09:41:41;36.00;;;25.30;;
3597;SDS011;1813;52.016;8.714;2024-01-30T09:44:21;37.57;;;26.10;;
3597;SDS011;1813;52.016;8.714;2024-01-30T09:46:57;38.20;;;25.87;;
3597;SDS011;1813;52.016;8.714;2024-01-30T09:49:36;37.10;;;25.37;;
3597;SDS011;1813;52.016;8.714;2024-01-30T09:52:11;42.50;;;23.87;;
3597;SDS011;1813;52.016;8.714;2024-01-30T09:54:45;33.50;;;23.87;;
3597;SDS011;1813;52.016;8.714;2024-01-30T09:57:19;33.27;;;22.87;;
3597;SDS011;1813;52.016;8.714;2024-01-30T09:59:53;34.27;;;23.10;;
3597;SDS011;1813;52.016;8.714;2024-01-30T10:02:27;38.17;;;22.80;;
3597;SDS011;1813;52.016;8.714;2024-01-30T10:05:03;32.50;;;23.20;;
3597;SDS011;1813;52.016;8.714;2024-01-30T10:07:37;35.50;;;22.37;;
3597;SDS011;1813;52.016;8.714;2024-01-30T10:10:10;34.13;;;22.97;;
3597;SDS011;1813;52.016;8.714;2024-01-30T10:12:43;36.70;;;23.57;;
3597;SDS011;1813;52.016;8.714;2024-01-30T10:15:17;33.63;;;22.77;;
3597;SDS011;1813;52.016;8.714;2024-01-30T10:17:50;38.63;;;23.07;;
3597;SDS011;1813;52.016;8.714;2024-01-30T10:20:27;35.17;;;23.50;;
3597;SDS011;1813;52.016;8.714;2024-01-30T10:23:00;35.10;;;21.87;;
3597;SDS011;1813;52.016;8.714;2024-01-30T10:25:34;30.43;;;21.63;;
3597;SDS011;1813;52.016;8.714;2024-01-30T10:28:08;31.23;;;21.37;;
3597;SDS011;1813;52.016;8.714;2024-01-30T10:30:42;28.07;;;18.60;;
3597;SDS011;1813;52.016;8.714;2024-01-30T10:33:15;30.40;;;17.40;;
3597;SDS011;1813;52.016;8.714;2024-01-30T10:35:51;24.87;;;16.30;;
3597;SDS011;1813;52.016;8.714;2024-01-30T10:38:25;23.57;;;16.60;;
3597;SDS011;1813;52.016;8.714;2024-01-30T10:41:01;30.20;;;17.73;;
3597;SDS011;1813;52.016;8.714;2024-01-30T10:43:35;20.20;;;14.10;;
3597;SDS011;1813;52.016;8.714;2024-01-30T10:46:15;15.03;;;9.83;;
3597;SDS011;1813;52.016;8.714;2024-01-30T10:48:54;7.63;;;6.80;;
3597;SDS011;1813;52.016;8.714;2024-01-30T10:51:33;10.63;;;6.60;;
3597;SDS011;1813;52.016;8.714;2024-01-30T10:54:08;6.60;;;5.77;;
3597;SDS011;1813;52.016;8.714;2024-01-30T10:56:43;9.07;;;6.30;;
3597;SDS011;1813;52.016;8.714;2024-01-30T10:59:17;10.33;;;5.80;;
3597;SDS011;1813;52.016;8.714;2024-01-30T11:01:51;8.83;;;6.20;;
3597;SDS011;1813;52.016;8.714;2024-01-30T11:04:25;12.73;;;5.90;;
3597;SDS011;1813;52.016;8.714;2024-01-30T11:07:01;11.27;;;6.70;;
3597;SDS011;1813;52.016;8.714;2024-01-30T11:09:36;12.60;;;6.93;;
3597;SDS011;1813;52.016;8.714;2024-01-30T11:12:11;9.10;;;6.10;;
3597;SDS011;1813;52.016;8.714;2024-01-30T11:14:45;8.70;;;5.90;;
3597;SDS011;1813;52.016;8.714;2024-01-30T11:17:18;7.83;;;6.23;;
3597;SDS011;1813;52.016;8.714;2024-01-30T11:19:51;7.37;;;6.57;;
3597;SDS011;1813;52.016;8.714;2024-01-30T11:22:27;8.00;;;6.10;;
3597;SDS011;1813;52.016;8.714;2024-01-30T11:25:03;10.70;;;5.87;;
3597;SDS011;1813;52.016;8.714;2024-01-30T11:27:38;8.87;;;6.90;;
3597;SDS011;1813;52.016;8.714;2024-01-30T11:30:20;10.67;;;6.63;;
3597;SDS011;1813;52.016;8.714;2024-01-30T11:32:58;12.27;;;7.00;;
3597;SDS011;1813;52.016;8.714;2024-01-30T11:35:37;9.50;;;6.23;;
3597;SDS011;1813;52.016;8.714;2024-01-30T11:38:15;10.40;;;6.00;;
3597;SDS011;1813;52.016;8.714;2024-01-30T11:40:48;8.30;;;6.43;;
3597;SDS011;1813;52.016;8.714;2024-01-30T11:43:23;10.97;;;6.70;;
3597;SDS011;1813;52.016;8.714;2024-01-30T11:45:56;7.63;;;6.27;;
3597;SDS011;1813;52.016;8.714;2024-01-30T11:48:30;8.60;;;6.70;;
3597;SDS011;1813;52.016;8.714;2024-01-30T11:51:03;13.13;;;6.80;;
3597;SDS011;1813;52.016;8.714;2024-01-30T11:53:39;9.90;;;6.27;;
3597;SDS011;1813;52.016;8.714;2024-01-30T11:56:14;9.03;;;6.10;;
3597;SDS011;1813;52.016;8.714;2024-01-30T11:58:47;9.90;;;6.20;;
3597;SDS011;1813;52.016;8.714;2024-01-30T12:01:22;11.23;;;6.80;;
3597;SDS011;1813;52.016;8.714;2024-01-30T12:03:55;12.10;;;6.50;;
3597;SDS011;1813;52.016;8.714;2024-01-30T12:06:29;10.43;;;6.83;;
3597;SDS011;1813;52.016;8.714;2024-01-30T12:09:06;12.53;;;6.37;;
3597;SDS011;1813;52.016;8.714;2024-01-30T12:11:45;10.23;;;6.90;;
3597;SDS011;1813;52.016;8.714;2024-01-30T12:14:20;15.20;;;7.57;;
3597;SDS011;1813;52.016;8.714;2024-01-30T12:16:55;10.67;;;6.63;;
3597;SDS011;1813;52.016;8.714;2024-01-30T12:19:28;13.30;;;7.20;;
3597;SDS011;1813;52.016;8.714;2024-01-30T12:22:02;9.10;;;6.63;;
3597;SDS011;1813;52.016;8.714;2024-01-30T12:24:38;16.90;;;8.10;;
3597;SDS011;1813;52.016;8.714;2024-01-30T12:27:11;16.17;;;7.87;;
3597;SDS011;1813;52.016;8.714;2024-01-30T12:29:48;10.60;;;7.00;;
3597;SDS011;1813;52.016;8.714;2024-01-30T12:32:22;10.60;;;7.23;;
3597;SDS011;1813;52.016;8.714;2024-01-30T12:34:55;14.00;;;8.40;;
3597;SDS011;1813;52.016;8.714;2024-01-30T12:37:29;11.20;;;7.40;;
3597;SDS011;1813;52.016;8.714;2024-01-30T12:40:06;12.70;;;7.53;;
3597;SDS011;1813;52.016;8.714;2024-01-30T12:42:41;14.10;;;8.27;;
3597;SDS011;1813;52.016;8.714;2024-01-30T12:45:16;15.93;;;8.33;;
3597;SDS011;1813;52.016;8.714;2024-01-30T12:47:50;13.47;;;7.50;;
3597;SDS011;1813;52.016;8.714;2024-01-30T12:50:34;11.20;;;7.83;;
3597;SDS011;1813;52.016;8.714;2024-01-30T12:53:07;15.33;;;7.90;;
3597;SDS011;1813;52.016;8.714;2024-01-30T12:55:42;14.73;;;8.17;;
3597;SDS011;1813;52.016;8.714;2024-01-30T12:58:16;15.23;;;8.33;;
3597;SDS011;1813;52.016;8.714;2024-01-30T13:00:50;13.20;;;8.40;;
3597;SDS011;1813;52.016;8.714;2024-01-30T13:03:24;16.33;;;8.37;;
3597;SDS011;1813;52.016;8.714;2024-01-30T13:06:00;10.47;;;8.20;;
3597;SDS011;1813;52.016;8.714;2024-01-30T13:08:33;13.70;;;8.70;;
3597;SDS011;1813;52.016;8.714;2024-01-30T13:11:06;13.17;;;8.47;;
3597;SDS011;1813;52.016;8.714;2024-01-30T13:13:40;12.30;;;8.20;;
3597;SDS011;1813;52.016;8.714;2024-01-30T13:16:13;16.90;;;7.90;;
3597;SDS011;1813;52.016;8.714;2024-01-30T13:18:47;15.00;;;8.40;;
3597;SDS011;1813;52.016;8.714;2024-01-30T13:21:23;13.20;;;8.50;;
3597;SDS011;1813;52.016;8.714;2024-01-30T13:23:56;13.50;;;8.50;;
3597;SDS011;1813;52.016;8.714;2024-01-30T13:26:31;13.90;;;8.53;;
3597;SDS011;1813;52.016;8.714;2024-01-30T13:29:04;16.30;;;9.17;;
3597;SDS011;1813;52.016;8.714;2024-01-30T13:31:38;13.17;;;9.53;;
3597;SDS011;1813;52.016;8.714;2024-01-30T13:34:12;15.97;;;9.70;;
3597;SDS011;1813;52.016;8.714;2024-01-30T13:36:48;19.43;;;10.43;;
3597;SDS011;1813;52.016;8.714;2024-01-30T13:39:22;18.40;;;9.23;;
3597;SDS011;1813;52.016;8.714;2024-01-30T13:41:55;12.67;;;9.20;;
3597;SDS011;1813;52.016;8.714;2024-01-30T13:44:28;19.07;;;10.07;;
3597;SDS011;1813;52.016;8.714;2024-01-30T13:47:02;20.30;;;10.33;;
3597;SDS011;1813;52.016;8.714;2024-01-30T13:49:36;17.07;;;9.80;;
3597;SDS011;1813;52.016;8.714;2024-01-30T13:52:12;16.13;;;9.33;;
3597;SDS011;1813;52.016;8.714;2024-01-30T13:54:46;16.30;;;8.23;;
3597;SDS011;1813;52.016;8.714;2024-01-30T13:57:19;15.43;;;8.93;;
3597;SDS011;1813;52.016;8.714;2024-01-30T13:59:52;15.27;;;9.57;;
3597;SDS011;1813;52.016;8.714;2024-01-30T14:02:27;15.77;;;9.57;;
3597;SDS011;1813;52.016;8.714;2024-01-30T14:05:00;16.33;;;9.60;;
3597;SDS011;1813;52.016;8.714;2024-01-30T14:07:37;19.07;;;9.17;;
3597;SDS011;1813;52.016;8.714;2024-01-30T14:10:13;21.13;;;9.40;;
3597;SDS011;1813;52.016;8.714;2024-01-30T14:12:46;14.03;;;8.60;;
3597;SDS011;1813;52.016;8.714;2024-01-30T14:15:20;14.87;;;9.20;;
3597;SDS011;1813;52.016;8.714;2024-01-30T14:17:53;15.60;;;9.10;;
3597;SDS011;1813;52.016;8.714;2024-01-30T14:20:27;19.73;;;9.83;;
3597;SDS011;1813;52.016;8.714;2024-01-30T14:23:03;19.93;;;10.20;;
3597;SDS011;1813;52.016;8.714;2024-01-30T14:25:37;17.20;;;9.40;;
3597;SDS011;1813;52.016;8.714;2024-01-30T14:28:10;18.00;;;10.00;;
3597;SDS011;1813;52.016;8.714;2024-01-30T14:30:44;18.33;;;9.97;;
3597;SDS011;1813;52.016;8.714;2024-01-30T14:33:17;27.00;;;10.63;;
3597;SDS011;1813;52.016;8.714;2024-01-30T14:35:50;14.77;;;10.20;;
3597;SDS011;1813;52.016;8.714;2024-01-30T14:38:26;18.83;;;10.47;;
3597;SDS011;1813;52.016;8.714;2024-01-30T14:41:00;25.07;;;10.97;;
3597;SDS011;1813;52.016;8.714;2024-01-30T14:43:34;21.47;;;11.20;;
3597;SDS011;1813;52.016;8.714;2024-01-30T14:46:07;18.73;;;10.03;;
3597;SDS011;1813;52.016;8.714;2024-01-30T14:48:41;13.90;;;10.27;;
3597;SDS011;1813;52.016;8.714;2024-01-30T14:51:14;21.83;;;10.93;;
3597;SDS011;1813;52.016;8.714;2024-01-30T14:53:50;14.80;;;10.67;;
3597;SDS011;1813;52.016;8.714;2024-01-30T14:56:24;18.70;;;10.83;;
3597;SDS011;1813;52.016;8.714;2024-01-30T14:58:57;19.20;;;11.43;;
3597;SDS011;1813;52.016;8.714;2024-01-30T15:01:31;20.53;;;11.67;;
3597;SDS011;1813;52.016;8.714;2024-01-30T15:04:04;21.93;;;11.23;;
3597;SDS011;1813;52.016;8.714;2024-01-30T15:06:37;15.73;;;10.07;;
3597;SDS011;1813;52.016;8.714;2024-01-30T15:09:18;22.70;;;11.70;;
3597;SDS011;1813;52.016;8.714;2024-01-30T15:11:52;20.17;;;10.97;;
3597;SDS011;1813;52.016;8.714;2024-01-30T15:14:26;23.03;;;11.13;;
3597;SDS011;1813;52.016;8.714;2024-01-30T15:16:59;19.20;;;12.03;;
3597;SDS011;1813;52.016;8.714;2024-01-30T15:19:32;23.73;;;11.53;;
3597;SDS011;1813;52.016;8.714;2024-01-30T15:22:06;22.80;;;11.73;;
3597;SDS011;1813;52.016;8.714;2024-01-30T15:24:41;22.53;;;11.53;;
3597;SDS011;1813;52.016;8.714;2024-01-30T15:27:15;23.30;;;11.90;;
3597;SDS011;1813;52.016;8.714;2024-01-30T15:29:49;25.23;;;11.67;;
3597;SDS011;1813;52.016;8.714;2024-01-30T15:32:22;18.47;;;11.83;;